createdAt,value
2022-10-05T00:01:00.349Z,52.33
2022-10-05T00:03:39.007Z,51.00
2022-10-05T00:06:12.572Z,58.72
2022-10-05T00:08:40.150Z,153.52
2022-10-05T00:11:11.393Z,73.95
2022-10-05T00:13:40.995Z,61.30
2022-10-05T00:16:11.465Z,61.92
2022-10-05T00:18:41.587Z,63.45
2022-10-05T00:21:21.733Z,64.07
2022-10-05T00:23:55.430Z,59.60
2022-10-05T00:26:33.023Z,60.67
2022-10-05T00:29:02.774Z,56.20
2022-10-05T00:31:35.632Z,61.35
2022-10-05T00:34:03.251Z,59.83
2022-10-05T00:36:30.526Z,51.35
2022-10-05T00:39:01.855Z,49.15
2022-10-05T00:42:00.058Z,48.60
2022-10-05T00:44:43.284Z,46.90
2022-10-05T00:47:35.973Z,44.72
2022-10-05T00:50:25.618Z,43.15
2022-10-05T00:53:16.809Z,43.78
2022-10-05T00:55:50.150Z,42.00
2022-10-05T00:59:06.002Z,37.33
2022-10-05T01:01:41.896Z,39.15
2022-10-05T01:04:39.153Z,40.00
2022-10-05T01:10:05.294Z,35.60
2022-10-05T01:13:00.983Z,39.38
2022-10-05T01:16:04.347Z,41.10
2022-10-05T01:18:54.190Z,40.10
2022-10-05T01:21:24.874Z,41.30
2022-10-05T01:24:21.467Z,41.95
2022-10-05T01:27:09.923Z,43.00
2022-10-05T01:29:49.750Z,51.95
2022-10-05T01:32:46.067Z,56.58
2022-10-05T01:35:36.647Z,56.08
2022-10-05T01:38:24.378Z,56.47
2022-10-05T01:41:03.432Z,59.20
2022-10-05T01:43:44.400Z,63.92
2022-10-05T01:46:27.009Z,69.78
2022-10-05T01:49:28.752Z,68.13
2022-10-05T01:52:19.268Z,68.07
2022-10-05T01:54:53.150Z,67.38
2022-10-05T01:57:48.088Z,69.55
2022-10-05T02:00:19.990Z,66.82
2022-10-05T02:03:11.742Z,67.97
2022-10-05T02:06:04.707Z,64.57
2022-10-05T02:08:43.463Z,65.43
2022-10-05T02:11:17.793Z,62.60
2022-10-05T02:13:51.572Z,57.40
2022-10-05T02:16:21.879Z,55.92
2022-10-05T02:19:00.223Z,62.92
2022-10-05T02:21:30.404Z,56.03
2022-10-05T02:24:07.123Z,64.15
2022-10-05T02:26:36.873Z,56.30
2022-10-05T02:29:09.713Z,55.83
2022-10-05T02:31:49.022Z,51.67
2022-10-05T02:34:28.889Z,53.95
2022-10-05T02:37:32.046Z,51.47
2022-10-05T02:40:31.647Z,48.40
2022-10-05T02:43:08.702Z,63.92
2022-10-05T02:45:42.901Z,52.97
2022-10-05T02:48:53.147Z,52.22
2022-10-05T02:51:25.932Z,54.65
2022-10-05T02:54:23.724Z,56.38
2022-10-05T02:57:12.293Z,68.65
2022-10-05T02:59:50.184Z,60.92
2022-10-05T03:02:44.462Z,61.58
2022-10-05T03:05:22.376Z,61.58
2022-10-05T03:08:02.397Z,61.72
2022-10-05T03:10:55.107Z,56.47
2022-10-05T03:13:38.192Z,59.72
2022-10-05T03:16:14.659Z,51.50
2022-10-05T03:19:26.411Z,54.03
2022-10-05T03:22:15.691Z,52.90
2022-10-05T03:24:56.627Z,59.45
2022-10-05T03:27:44.928Z,64.28
2022-10-05T03:30:24.012Z,54.25
2022-10-05T03:33:03.807Z,54.33
2022-10-05T03:35:58.567Z,50.67
2022-10-05T03:38:26.013Z,54.00
2022-10-05T03:41:18.089Z,57.90
2022-10-05T03:43:51.194Z,58.40
2022-10-05T03:46:24.531Z,57.42
2022-10-05T03:49:08.958Z,54.72
2022-10-05T03:51:42.118Z,55.75
2022-10-05T03:54:20.832Z,65.22
2022-10-05T03:56:58.207Z,65.32
2022-10-05T03:59:32.850Z,68.05
2022-10-05T04:02:07.603Z,64.75
2022-10-05T04:05:05.416Z,57.60
2022-10-05T04:07:38.676Z,54.50
2022-10-05T04:10:17.945Z,57.28
2022-10-05T04:12:52.614Z,54.63
2022-10-05T04:15:42.733Z,60.45
2022-10-05T04:18:28.767Z,81.00
2022-10-05T04:21:07.058Z,66.35
2022-10-05T04:23:48.209Z,72.63
2022-10-05T04:26:44.012Z,74.60
2022-10-05T04:29:36.022Z,71.43
2022-10-05T04:32:20.609Z,67.10
2022-10-05T04:34:57.033Z,59.10
2022-10-05T04:37:54.008Z,52.83
2022-10-05T04:40:28.243Z,51.38
2022-10-05T04:43:10.771Z,46.95
2022-10-05T04:46:01.990Z,52.42
2022-10-05T04:48:44.716Z,49.78
2022-10-05T04:51:23.710Z,49.47
2022-10-05T04:54:05.518Z,46.97
2022-10-05T04:56:59.127Z,48.60
2022-10-05T04:59:39.873Z,48.90
2022-10-05T05:02:16.677Z,44.17
2022-10-05T05:04:51.986Z,45.53
2022-10-05T05:07:31.938Z,42.28
2022-10-05T05:10:33.543Z,37.63
2022-10-05T05:13:15.008Z,43.38
2022-10-05T05:16:12.997Z,39.78
2022-10-05T05:19:05.452Z,39.30
2022-10-05T05:22:00.392Z,40.25
2022-10-05T05:24:38.788Z,44.20
2022-10-05T05:27:18.813Z,39.03
2022-10-05T05:30:06.380Z,40.50
2022-10-05T05:32:52.653Z,42.53
2022-10-05T05:35:53.892Z,59.05
2022-10-05T05:38:33.598Z,44.90
2022-10-05T05:41:13.228Z,41.90
2022-10-05T05:43:56.493Z,60.17
2022-10-05T05:47:01.780Z,53.35
2022-10-05T05:49:39.023Z,52.88
2022-10-05T05:52:16.278Z,52.63
2022-10-05T05:54:49.682Z,51.17
2022-10-05T05:57:30.035Z,49.60
2022-10-05T06:00:18.778Z,52.88
2022-10-05T06:03:38.876Z,48.72
2022-10-05T06:06:38.382Z,43.38
2022-10-05T06:09:47.393Z,43.03
2022-10-05T06:12:46.997Z,42.65
2022-10-05T06:15:25.573Z,51.47
2022-10-05T06:17:58.963Z,60.50
2022-10-05T06:21:00.297Z,62.88
2022-10-05T06:23:50.941Z,60.00
2022-10-05T06:26:55.729Z,52.83
2022-10-05T06:29:31.059Z,53.33
2022-10-05T06:31:59.159Z,49.90
2022-10-05T06:34:54.713Z,55.83
2022-10-05T06:37:27.712Z,46.42
2022-10-05T06:40:05.112Z,48.17
2022-10-05T06:42:51.469Z,52.30
2022-10-05T06:46:07.383Z,46.00
2022-10-05T06:49:20.223Z,48.40
2022-10-05T06:52:32.528Z,56.25
2022-10-05T06:55:22.240Z,51.58
2022-10-05T06:58:21.202Z,57.72
2022-10-05T07:00:54.423Z,59.63
2022-10-05T07:03:50.023Z,60.33
2022-10-05T07:06:34.352Z,59.17
2022-10-05T07:09:25.962Z,63.80
2022-10-05T07:12:09.823Z,67.05
2022-10-05T07:14:55.763Z,69.57
2022-10-05T07:17:27.684Z,71.82
2022-10-05T07:20:20.240Z,75.45
2022-10-05T07:23:25.047Z,71.70
2022-10-05T07:26:26.950Z,74.15
2022-10-05T07:29:06.793Z,72.38
2022-10-05T07:31:44.848Z,69.95
2022-10-05T07:34:21.117Z,75.32
2022-10-05T07:37:20.312Z,73.07
2022-10-05T07:40:01.618Z,63.97
2022-10-05T07:42:48.941Z,63.92
2022-10-05T07:45:34.208Z,60.33
2022-10-05T07:48:14.094Z,53.33
2022-10-05T07:50:51.808Z,46.97
2022-10-05T07:53:25.860Z,38.45
2022-10-05T07:56:03.102Z,35.70
2022-10-05T07:58:51.924Z,37.72
2022-10-05T08:01:34.367Z,37.97
2022-10-05T08:04:14.367Z,25.95
2022-10-05T08:06:53.433Z,19.33
2022-10-05T08:09:48.515Z,19.63
2022-10-05T08:12:31.820Z,16.42
2022-10-05T08:15:17.962Z,15.73
2022-10-05T08:17:54.184Z,17.70
2022-10-05T08:20:21.580Z,18.33
2022-10-05T08:22:57.572Z,16.70
2022-10-05T08:25:29.452Z,16.95
2022-10-05T08:28:05.275Z,44.58
2022-10-05T08:30:40.569Z,20.55
2022-10-05T08:33:16.082Z,15.53
2022-10-05T08:38:23.573Z,12.85
2022-10-05T08:41:12.981Z,14.32
2022-10-05T08:44:02.518Z,11.93
2022-10-05T08:46:32.665Z,12.27
2022-10-05T08:49:05.925Z,12.63
2022-10-05T08:52:01.565Z,12.40
2022-10-05T08:54:44.765Z,13.20
2022-10-05T08:57:47.043Z,11.93
2022-10-05T09:00:19.305Z,18.70
2022-10-05T09:03:14.493Z,17.67
2022-10-05T09:06:14.510Z,11.73
2022-10-05T09:08:56.732Z,16.58
2022-10-05T09:11:42.788Z,13.23
2022-10-05T09:14:52.665Z,13.15
2022-10-05T09:18:09.447Z,7.22
2022-10-05T09:21:02.822Z,5.40
2022-10-05T09:23:44.757Z,5.78
2022-10-05T09:26:45.605Z,5.32
2022-10-05T09:29:31.443Z,5.50
2022-10-05T09:35:16.093Z,5.65
2022-10-05T09:38:05.251Z,5.57
2022-10-05T09:40:41.701Z,5.50
2022-10-05T09:43:32.263Z,5.10
2022-10-05T09:46:42.311Z,4.72
2022-10-05T09:49:50.163Z,4.63
2022-10-05T09:52:53.667Z,5.05
2022-10-05T09:55:25.733Z,4.70
2022-10-05T09:58:30.623Z,4.40
2022-10-05T10:01:32.228Z,4.30
2022-10-05T10:04:08.210Z,4.80
2022-10-05T10:07:05.223Z,4.43
2022-10-05T10:09:56.212Z,3.75
2022-10-05T10:12:42.100Z,4.57
2022-10-05T10:15:35.777Z,4.07
2022-10-05T10:18:19.255Z,4.32
2022-10-05T10:21:05.467Z,4.25
2022-10-05T10:23:45.614Z,4.80
2022-10-05T10:26:37.630Z,4.85
2022-10-05T10:32:05.098Z,4.95
2022-10-05T10:34:57.552Z,4.55
2022-10-05T10:37:36.937Z,5.40
2022-10-05T10:40:28.728Z,5.78
2022-10-05T10:42:56.549Z,5.18
2022-10-05T10:45:56.419Z,5.38
2022-10-05T10:48:32.189Z,4.97
2022-10-05T10:51:12.078Z,5.20
2022-10-05T10:53:48.668Z,5.88
2022-10-05T10:56:27.131Z,4.75
2022-10-05T10:58:57.189Z,4.55
2022-10-05T11:01:46.494Z,5.03
2022-10-05T11:04:50.631Z,4.72
2022-10-05T11:08:02.130Z,4.70
2022-10-05T11:10:56.513Z,4.57
2022-10-05T11:13:47.972Z,4.05
2022-10-05T11:16:31.350Z,4.20
2022-10-05T11:19:35.109Z,4.65
2022-10-05T11:22:25.196Z,4.00
2022-10-05T11:25:21.663Z,3.60
2022-10-05T11:28:07.398Z,3.83
2022-10-05T11:30:55.066Z,4.65
2022-10-05T11:34:03.632Z,4.13
2022-10-05T11:36:42.940Z,4.53
2022-10-05T11:39:22.340Z,4.03
2022-10-05T11:42:30.001Z,4.32
2022-10-05T11:45:24.501Z,3.97
2022-10-05T11:48:10.461Z,3.80
2022-10-05T11:50:47.662Z,4.40
2022-10-05T11:53:36.451Z,4.15
2022-10-05T11:56:17.102Z,3.90
2022-10-05T11:58:51.008Z,3.83
2022-10-05T12:01:27.520Z,2.75
2022-10-05T12:04:18.320Z,2.30
2022-10-05T12:07:08.290Z,2.17
2022-10-05T12:10:11.288Z,2.50
2022-10-05T12:12:50.110Z,2.08
2022-10-05T12:15:34.950Z,1.88
2022-10-05T12:18:13.920Z,2.17
2022-10-05T12:20:49.989Z,2.00
2022-10-05T12:23:49.909Z,2.65
2022-10-05T12:26:36.808Z,3.05
2022-10-05T12:29:23.945Z,2.75
2022-10-05T12:32:18.662Z,2.83
2022-10-05T12:35:01.465Z,2.55
2022-10-05T12:37:48.981Z,3.10
2022-10-05T12:40:27.644Z,3.28
2022-10-05T12:43:04.869Z,3.05
2022-10-05T12:46:04.363Z,3.90
2022-10-05T12:48:56.275Z,2.65
2022-10-05T12:51:38.500Z,2.60
2022-10-05T12:54:23.697Z,2.35
2022-10-05T12:56:59.342Z,4.05
2022-10-05T13:00:10.123Z,2.40
2022-10-05T13:02:44.333Z,5.53
2022-10-05T13:05:11.800Z,8.05
2022-10-05T13:08:05.740Z,2.45
2022-10-05T13:10:42.230Z,2.13
2022-10-05T13:13:17.732Z,2.25
2022-10-05T13:15:53.816Z,2.47
2022-10-05T13:18:33.089Z,2.65
2022-10-05T13:21:12.350Z,2.17
2022-10-05T13:24:07.958Z,2.33
2022-10-05T13:26:47.688Z,2.83
2022-10-05T13:29:37.564Z,3.67
2022-10-05T13:32:25.872Z,2.47
2022-10-05T13:35:30.829Z,3.42
2022-10-05T13:38:13.813Z,2.35
2022-10-05T13:41:16.443Z,2.08
2022-10-05T13:44:01.931Z,2.88
2022-10-05T13:46:58.421Z,3.00
2022-10-05T13:49:41.214Z,2.83
2022-10-05T13:52:09.034Z,3.38
2022-10-05T13:54:48.332Z,4.05
2022-10-05T13:57:45.530Z,4.47
2022-10-05T14:00:22.702Z,5.15
2022-10-05T14:02:56.977Z,3.45
2022-10-05T14:05:29.744Z,3.30
2022-10-05T14:08:16.094Z,2.60
2022-10-05T14:10:47.076Z,3.38
2022-10-05T14:13:22.487Z,3.45
2022-10-05T14:16:04.959Z,2.47
2022-10-05T14:18:36.891Z,2.92
2022-10-05T14:21:13.895Z,2.80
2022-10-05T14:23:41.803Z,2.80
2022-10-05T14:26:32.735Z,3.08
2022-10-05T14:29:16.920Z,3.30
2022-10-05T14:32:00.301Z,3.15
2022-10-05T14:34:50.420Z,2.35
2022-10-05T14:37:51.241Z,2.22
2022-10-05T14:40:30.388Z,4.15
2022-10-05T14:43:01.834Z,5.97
2022-10-05T14:45:30.323Z,5.32
2022-10-05T14:48:00.521Z,4.00
2022-10-05T14:50:31.027Z,3.63
2022-10-05T14:53:17.401Z,4.78
2022-10-05T14:56:17.430Z,4.20
2022-10-05T14:59:04.623Z,3.33
2022-10-05T15:01:36.816Z,3.70
2022-10-05T15:04:34.157Z,4.88
2022-10-05T15:07:20.909Z,6.28
2022-10-05T15:10:16.130Z,4.95
2022-10-05T15:12:48.457Z,6.03
2022-10-05T15:15:38.559Z,6.47
2022-10-05T15:18:24.687Z,10.40
2022-10-05T15:21:11.967Z,12.40
2022-10-05T15:23:49.889Z,5.05
2022-10-05T15:26:27.054Z,7.05
2022-10-05T15:29:07.283Z,6.25
2022-10-05T15:31:55.839Z,5.93
2022-10-05T15:34:41.220Z,5.30
2022-10-05T15:37:19.987Z,3.97
2022-10-05T15:40:01.059Z,6.45
2022-10-05T15:42:37.171Z,5.18
2022-10-05T15:45:23.882Z,5.18
2022-10-05T15:48:07.744Z,6.30
2022-10-05T15:50:53.532Z,5.07
2022-10-05T15:53:42.409Z,5.35
2022-10-05T15:56:23.008Z,5.65
2022-10-05T15:58:53.443Z,5.75
2022-10-05T16:01:26.667Z,5.25
2022-10-05T16:04:15.374Z,4.93
2022-10-05T16:07:20.347Z,9.38
2022-10-05T16:10:02.547Z,17.30
2022-10-05T16:12:48.680Z,19.30
2022-10-05T16:15:26.459Z,18.73
2022-10-05T16:18:24.268Z,19.80
2022-10-05T16:21:01.392Z,19.30
2022-10-05T16:23:35.493Z,18.25
2022-10-05T16:26:24.563Z,13.30
2022-10-05T16:28:55.371Z,10.63
2022-10-05T16:31:31.290Z,12.30
2022-10-05T16:34:17.362Z,12.88
2022-10-05T16:37:19.999Z,16.60
2022-10-05T16:40:00.492Z,14.98
2022-10-05T16:42:35.043Z,16.90
2022-10-05T16:45:44.674Z,20.70
2022-10-05T16:48:26.164Z,23.73
2022-10-05T16:51:13.183Z,24.48
2022-10-05T16:53:51.427Z,25.45
2022-10-05T16:56:25.381Z,26.95
2022-10-05T16:58:59.399Z,36.50
2022-10-05T17:01:48.737Z,36.60
2022-10-05T17:04:23.871Z,38.35
2022-10-05T17:06:51.390Z,39.50
2022-10-05T17:09:40.499Z,38.60
2022-10-05T17:12:23.321Z,102.65
2022-10-05T17:14:54.077Z,91.82
2022-10-05T17:17:41.525Z,84.07
2022-10-05T17:20:37.859Z,61.03
2022-10-05T17:23:51.522Z,50.22
2022-10-05T17:26:40.660Z,55.78
2022-10-05T17:29:16.525Z,67.38
2022-10-05T17:32:10.989Z,67.68
2022-10-05T17:35:01.113Z,73.78
2022-10-05T17:37:28.470Z,67.35
2022-10-05T17:39:59.210Z,71.38
2022-10-05T17:42:26.780Z,73.65
2022-10-05T17:45:12.559Z,73.88
2022-10-05T17:48:00.859Z,70.75
2022-10-05T17:51:07.563Z,84.40
2022-10-05T17:54:03.022Z,89.28
2022-10-05T17:56:34.021Z,85.72
2022-10-05T17:59:06.308Z,101.78
2022-10-05T18:01:35.355Z,93.18
2022-10-05T18:04:11.889Z,87.30
2022-10-05T18:07:01.231Z,92.20
2022-10-05T18:09:36.323Z,80.43
2022-10-05T18:12:21.492Z,86.03
2022-10-05T18:14:57.335Z,64.13
2022-10-05T18:17:41.452Z,81.43
2022-10-05T18:20:26.760Z,77.40
2022-10-05T18:23:24.063Z,75.10
2022-10-05T18:26:26.587Z,92.05
2022-10-05T18:29:14.206Z,81.75
2022-10-05T18:32:03.019Z,73.53
2022-10-05T18:34:38.493Z,66.10
2022-10-05T18:37:16.864Z,68.85
2022-10-05T18:40:00.943Z,69.70
2022-10-05T18:42:44.802Z,85.65
2022-10-05T18:45:40.077Z,78.88
2022-10-05T18:48:11.287Z,78.93
2022-10-05T18:50:56.349Z,68.47
2022-10-05T18:53:44.769Z,68.20
2022-10-05T18:56:24.642Z,72.80
2022-10-05T18:59:24.409Z,78.15
2022-10-05T19:02:07.491Z,78.57
2022-10-05T19:04:54.027Z,106.82
2022-10-05T19:07:48.437Z,138.52
2022-10-05T19:10:56.500Z,133.80
2022-10-05T19:13:50.908Z,112.65
2022-10-05T19:16:38.431Z,80.70
2022-10-05T19:19:32.394Z,91.28
2022-10-05T19:22:06.753Z,96.72
2022-10-05T19:24:43.727Z,90.03
2022-10-05T19:27:45.592Z,87.45
2022-10-05T19:30:18.351Z,95.55
2022-10-05T19:33:20.623Z,84.25
2022-10-05T19:36:10.866Z,69.72
2022-10-05T19:38:54.428Z,74.85
2022-10-05T19:41:29.558Z,77.28
2022-10-05T19:44:09.092Z,82.63
2022-10-05T19:46:54.648Z,84.53
2022-10-05T19:49:43.382Z,82.68
2022-10-05T19:52:50.022Z,83.78
2022-10-05T19:55:20.947Z,82.53
2022-10-05T19:57:54.023Z,74.93
2022-10-05T20:00:27.500Z,74.43
2022-10-05T20:03:27.771Z,76.03
2022-10-05T20:05:57.900Z,76.50
2022-10-05T20:08:31.998Z,75.25
2022-10-05T20:11:11.978Z,76.25
2022-10-05T20:14:01.279Z,81.13
2022-10-05T20:16:49.961Z,82.68
2022-10-05T20:19:46.632Z,82.03
2022-10-05T20:24:56.817Z,80.90
2022-10-05T20:27:47.810Z,87.97
2022-10-05T20:30:22.798Z,92.57
2022-10-05T20:32:51.593Z,104.00
2022-10-05T20:35:23.209Z,111.28
2022-10-05T20:38:09.401Z,104.82
2022-10-05T20:40:36.777Z,82.53
2022-10-05T20:43:04.400Z,83.45
2022-10-05T20:45:31.799Z,81.07
2022-10-05T20:47:59.360Z,72.00
2022-10-05T20:50:27.850Z,69.32
2022-10-05T20:52:55.199Z,69.80
2022-10-05T20:55:23.230Z,78.68
2022-10-05T20:57:50.662Z,86.80
2022-10-05T21:00:18.241Z,77.30
2022-10-05T21:02:46.961Z,84.75
2022-10-05T21:05:14.465Z,76.63
2022-10-05T21:07:41.760Z,75.97
2022-10-05T21:10:09.779Z,68.03
2022-10-05T21:12:37.590Z,74.68
2022-10-05T21:15:05.477Z,64.18
2022-10-05T21:17:35.400Z,61.95
2022-10-05T21:20:06.470Z,57.45
2022-10-05T21:22:36.511Z,52.97
2022-10-05T21:25:04.139Z,60.17
2022-10-05T21:27:31.409Z,60.72
2022-10-05T21:29:59.017Z,60.15
2022-10-05T21:32:26.260Z,60.00
2022-10-05T21:34:54.525Z,67.25
2022-10-05T21:37:22.626Z,60.70
2022-10-05T21:39:50.072Z,57.05
2022-10-05T21:42:17.429Z,49.72
2022-10-05T21:44:45.020Z,57.95
2022-10-05T21:47:12.899Z,55.90
2022-10-05T21:49:41.909Z,57.03
2022-10-05T21:52:10.288Z,44.13
2022-10-05T21:54:37.920Z,44.45
2022-10-05T21:57:05.280Z,51.33
2022-10-05T21:59:34.600Z,48.13
2022-10-05T22:02:02.590Z,50.30
2022-10-05T22:04:30.101Z,52.13
2022-10-05T22:06:58.072Z,53.70
2022-10-05T22:09:25.377Z,49.20
2022-10-05T22:11:52.671Z,53.63
2022-10-05T22:14:21.400Z,53.33
2022-10-05T22:16:49.200Z,52.17
2022-10-05T22:19:19.688Z,54.40
2022-10-05T22:21:47.948Z,55.25
2022-10-05T22:24:15.179Z,57.88
2022-10-05T22:26:46.268Z,60.38
2022-10-05T22:29:16.868Z,61.67
2022-10-05T22:31:48.971Z,61.10
2022-10-05T22:34:24.771Z,57.70
2022-10-05T22:36:52.125Z,57.97
2022-10-05T22:39:19.667Z,57.63
2022-10-05T22:41:47.019Z,60.78
2022-10-05T22:44:14.754Z,61.30
2022-10-05T22:46:42.457Z,58.65
2022-10-05T22:49:09.756Z,68.47
2022-10-05T22:51:36.948Z,64.53
2022-10-05T22:54:04.922Z,65.35
2022-10-05T22:56:34.829Z,61.33
2022-10-05T22:59:01.949Z,79.05
2022-10-05T23:01:29.446Z,68.45
2022-10-05T23:03:57.513Z,62.28
2022-10-05T23:06:26.767Z,56.70
2022-10-05T23:08:55.354Z,59.03
2022-10-05T23:11:26.058Z,60.97
2022-10-05T23:13:55.911Z,57.30
2022-10-05T23:16:25.483Z,57.90
2022-10-05T23:18:56.525Z,58.15
2022-10-05T23:21:27.303Z,66.18
2022-10-05T23:23:55.093Z,61.47
2022-10-05T23:26:24.748Z,62.92
2022-10-05T23:28:52.642Z,61.58
2022-10-05T23:31:24.739Z,59.80
2022-10-05T23:33:53.114Z,57.15
2022-10-05T23:36:23.242Z,58.72
2022-10-05T23:38:50.817Z,59.58
2022-10-05T23:41:19.933Z,61.15
2022-10-05T23:43:47.547Z,58.40
2022-10-05T23:46:15.554Z,53.55
2022-10-05T23:48:42.818Z,57.08
2022-10-05T23:51:12.680Z,55.05
2022-10-05T23:53:40.428Z,56.13
2022-10-05T23:56:07.721Z,51.97
2022-10-05T23:58:35.225Z,54.47
